Terminal Aerodrome Forecast
Issued by NWS Sterling, VA

Current Version | Previous Version | Text Only | Print | Product List | Glossary Off
Versions: 1 2 3 4 5 6 7 8 9 10 11 12 13 14 15 16 17 18 19 20

138
FTUS41 KLWX 261511 AAA
TAFIAD
TAF AMD
KIAD 261511Z 2615/2718 20004KT P6SM FEW170 FEW250
     FM261600 20007KT P6SM FEW050
     FM262000 20007KT P6SM VCTS BKN050CB
     FM270000 18005KT P6SM BKN050
     FM270900 VRB03KT 3SM BR SCT090
     FM271200 VRB03KT P6SM SCT090=

USA.gov is the U.S. government's official web portal to all federal, state and local government web resources and services.